Klondike, Georgia
Current Conditions -  °F | °C
As of 9:55 PM on Thursday 18 Dec 2014 (Local Time) from KPXE Reporting Station
Clear Clear  
Wind Chill: 53°   Ceiling: Unl
Heat Index: 53°   Visibility: 10mi
Dew Point: 31°   Wind: 3mph
Humidity: 44%   Direction: 320°NW
Pressure: 30.16"   Gusts: NA
Location:  32.2568°N, 83.5362°W
Report Text: KPXE 190255Z AUTO 32003KT 10SM CLR 12/00 A3016 RMK AO2 T01171003
Loading
Personal Weather Stations






























Interactive Weather Map New forecast layout! Learn more

10-Day Weather Forecast

Advertisements
Track Severe Weather on mobile